Time;durP1;ratioP1;P1;durP2;ratioP2;P2;SDS_P1;SDS_P2;PMS_P1;PMS_P2;Temp;Humidity;BMP_temperature;BMP_pressure;BME280_temperature;BME280_humidity;BME280_pressure;Samples;Min_cycle;Max_cycle;Signal;HPM_P1;HPM_P2
2022/03/16 00:02:20;;;;;;;74.53;29.77;;;7.30;47.00;;;7.16;39.97;95945.38;4938547;29;20516;-57
2022/03/16 00:04:48;;;;;;;62.50;30.77;;;7.20;47.20;;;7.15;40.08;95942.84;4944527;29;20888;-56
2022/03/16 00:07:15;;;;;;;61.47;29.53;;;7.20;47.20;;;7.12;39.63;95951.72;4946174;28;20519;-57
2022/03/16 00:09:43;;;;;;;59.60;29.43;;;7.20;47.50;;;7.11;40.15;95942.19;4932340;29;20456;-57
2022/03/16 00:12:11;;;;;;;65.40;29.93;;;7.10;47.70;;;7.08;39.87;95937.16;4938112;29;20463;-58
2022/03/16 00:14:38;;;;;;;65.60;29.20;;;7.20;47.80;;;7.06;40.11;95952.06;4941036;28;20932;-59
2022/03/16 00:17:06;;;;;;;63.07;31.03;;;7.10;47.70;;;7.06;39.87;95951.25;4944893;28;20996;-55
2022/03/16 00:19:35;;;;;;;68.20;34.20;;;7.10;47.60;;;7.03;40.55;95943.56;4936442;29;20461;-57
2022/03/16 00:22:04;;;;;;;89.80;38.20;;;7.10;47.80;;;6.97;39.88;95934.31;4935418;29;20504;-55
2022/03/16 00:24:32;;;;;;;79.23;35.00;;;7.00;47.10;;;6.90;40.07;95933.00;4941397;29;20452;-56
2022/03/16 00:26:59;;;;;;;84.97;36.80;;;7.00;46.90;;;6.84;40.39;95926.38;4945299;28;20887;-57
2022/03/16 00:29:26;;;;;;;75.93;33.67;;;6.90;47.60;;;6.82;40.37;95923.00;4937253;28;20473;-58
2022/03/16 00:31:53;;;;;;;73.97;34.63;;;6.90;48.20;;;6.82;40.35;95933.47;4934754;29;20572;-56
2022/03/16 00:34:21;;;;;;;99.47;34.87;;;6.90;48.20;;;6.84;40.76;95928.16;4940918;28;20500;-56
2022/03/16 00:36:49;;;;;;;85.03;38.13;;;6.90;48.30;;;6.81;40.86;95918.69;4941808;28;20877;-58
2022/03/16 00:39:17;;;;;;;70.67;33.80;;;6.90;48.00;;;6.79;40.61;95910.94;4938241;28;20473;-55
2022/03/16 00:41:44;;;;;;;72.70;33.40;;;6.90;49.00;;;6.77;40.39;95902.38;4934403;29;20971;-58
2022/03/16 00:44:11;;;;;;;66.30;31.60;;;6.80;47.80;;;6.76;41.29;95894.59;4938993;29;20503;-59
2022/03/16 00:46:38;;;;;;;75.53;30.37;;;6.80;48.60;;;6.75;41.35;95898.97;4940861;29;20457;-57
2022/03/16 00:49:06;;;;;;;78.53;30.83;;;6.80;49.00;;;6.75;41.03;95879.84;4943389;28;21054;-55
2022/03/16 00:51:33;;;;;;;66.57;31.50;;;6.80;49.20;;;6.76;40.92;95874.53;4933320;29;20464;-57
2022/03/16 00:54:02;;;;;;;66.93;31.10;;;6.80;49.20;;;6.73;40.72;95869.47;4938373;29;20838;-57
2022/03/16 00:56:29;;;;;;;61.33;28.43;;;6.80;48.40;;;6.69;41.06;95864.53;4942336;28;20795;-57
2022/03/16 00:58:56;;;;;;;82.70;29.87;;;6.80;48.50;;;6.63;40.94;95873.56;4945933;28;20476;-58
2022/03/16 01:01:23;;;;;;;62.80;31.50;;;6.70;48.80;;;6.58;41.48;95879.09;4932807;28;20457;-57
2022/03/16 01:03:51;;;;;;;58.80;27.97;;;6.70;49.20;;;6.55;42.13;95870.56;4936146;29;20518;-54
2022/03/16 01:06:20;;;;;;;69.80;29.97;;;6.60;49.60;;;6.52;41.90;95870.75;4938409;29;20467;-55
2022/03/16 01:08:47;;;;;;;59.67;29.77;;;6.60;49.70;;;6.52;42.59;95862.91;4934538;29;20496;-57
2022/03/16 01:11:16;;;;;;;63.50;32.30;;;6.60;50.00;;;6.51;41.89;95869.91;4934598;29;20456;-59
2022/03/16 01:13:43;;;;;;;69.30;31.33;;;6.60;50.00;;;6.53;42.51;95862.81;4935360;29;20484;-58
2022/03/16 01:16:11;;;;;;;66.20;30.77;;;6.60;51.30;;;6.53;42.87;95868.03;4939547;28;20503;-58
2022/03/16 01:18:38;;;;;;;57.53;29.43;;;6.60;50.90;;;6.51;42.89;95858.63;4941829;28;20479;-58
2022/03/16 01:21:05;;;;;;;62.77;28.60;;;6.60;50.90;;;6.51;42.70;95842.94;4940398;29;20465;-59
2022/03/16 01:23:33;;;;;;;67.33;29.27;;;6.60;50.80;;;6.50;42.92;95841.25;4934098;29;20481;-58
2022/03/16 01:26:00;;;;;;;62.27;30.07;;;6.60;51.30;;;6.49;43.00;95831.72;4937849;29;20456;-58
2022/03/16 01:28:29;;;;;;;60.73;28.73;;;6.60;51.10;;;6.49;43.16;95823.88;4939052;29;21020;-57
2022/03/16 01:30:57;;;;;;;72.77;32.63;;;6.50;51.50;;;6.46;42.63;95830.16;4942356;28;20495;-57
2022/03/16 01:33:25;;;;;;;65.43;30.30;;;6.50;50.20;;;6.44;43.29;95838.09;4932488;29;20472;-55
2022/03/16 01:35:52;;;;;;;59.10;28.87;;;6.50;51.10;;;6.44;42.99;95822.41;4936560;28;20874;-58
2022/03/16 01:38:19;;;;;;;63.03;29.33;;;6.50;51.40;;;6.45;43.37;95828.47;4941309;28;20485;-58
2022/03/16 01:40:46;;;;;;;66.63;30.53;;;6.50;51.80;;;6.45;43.15;95831.91;4944291;28;20865;-56
2022/03/16 01:43:14;;;;;;;89.03;33.10;;;6.50;51.80;;;6.46;43.30;95812.69;4929018;29;20473;-58
2022/03/16 01:45:48;;;;;;;67.27;32.50;;;6.50;51.50;;;6.49;43.10;95808.22;4933214;29;20469;-56
2022/03/16 01:48:15;;;;;;;65.03;29.80;;;6.50;51.60;;;6.48;43.39;95812.59;4939169;29;21036;-56
2022/03/16 01:50:42;;;;;;;67.10;30.20;;;6.60;51.60;;;6.49;43.60;95810.81;4942634;28;20840;-56
2022/03/16 01:53:10;;;;;;;85.60;34.10;;;6.50;52.30;;;6.49;43.81;95813.44;4934851;28;20477;-55
2022/03/16 01:55:39;;;;;;;70.67;31.27;;;6.60;52.50;;;6.49;43.80;95798.63;4934912;29;20501;-56
2022/03/16 01:58:06;;;;;;;83.67;31.47;;;6.50;52.40;;;6.49;43.61;95802.97;4939492;28;20485;-58
2022/03/16 02:00:34;;;;;;;76.13;32.60;;;6.60;52.20;;;6.49;43.34;95797.75;4941655;29;20445;-56
2022/03/16 02:03:02;;;;;;;70.67;30.77;;;6.60;52.10;;;6.50;43.07;95800.28;4933942;29;20477;-55
2022/03/16 02:05:29;;;;;;;60.60;29.17;;;6.60;51.40;;;6.51;42.60;95796.75;4933717;29;20521;-57
2022/03/16 02:07:57;;;;;;;63.37;29.83;;;6.60;50.90;;;6.52;42.59;95802.78;4936216;29;20480;-55
2022/03/16 02:10:24;;;;;;;79.23;32.83;;;6.60;51.20;;;6.53;43.56;95792.25;4940739;29;20890;-58
2022/03/16 02:12:52;;;;;;;53.57;24.93;;;6.60;51.80;;;6.53;42.51;95792.25;4942075;29;20914;-57
2022/03/16 02:15:20;;;;;;;52.93;23.07;;;6.60;51.20;;;6.54;42.67;95793.13;4932003;29;20501;-54
2022/03/16 02:17:50;;;;;;;51.00;23.50;;;6.60;50.80;;;6.54;42.46;95787.88;4935740;28;20532;-59
2022/03/16 02:20:19;;;;;;;49.80;22.87;;;6.60;50.50;;;6.53;42.28;95794.03;4936121;29;20527;-57
2022/03/16 02:22:56;;;;;;;58.27;25.77;;;6.60;50.50;;;6.53;42.45;95779.19;4940397;29;20481;-55
2022/03/16 02:25:23;;;;;;;51.97;24.83;;;6.60;50.70;;;6.53;42.56;95770.50;4931771;28;20531;-55
2022/03/16 02:27:52;;;;;;;56.57;25.70;;;6.60;50.90;;;6.51;42.32;95775.00;4934533;29;20864;-58
2022/03/16 02:30:19;;;;;;;49.73;25.07;;;6.60;50.70;;;6.50;42.80;95773.31;4938865;28;20841;-59
2022/03/16 02:32:47;;;;;;;48.53;25.60;;;6.60;51.10;;;6.49;42.45;95776.84;4941584;29;20885;-55
2022/03/16 02:35:14;;;;;;;54.93;25.10;;;6.50;50.90;;;6.48;42.78;95775.19;4931352;28;20863;-59
2022/03/16 02:37:42;;;;;;;58.63;24.00;;;6.50;50.90;;;6.48;42.69;95765.56;4934163;29;20580;-54
2022/03/16 02:40:12;;;;;;;45.73;22.07;;;6.50;51.10;;;6.46;42.28;95773.50;4937851;29;20469;-58
2022/03/16 02:42:39;;;;;;;39.97;21.00;;;6.50;50.80;;;6.44;42.84;95770.16;4941419;28;20473;-57
2022/03/16 02:45:07;;;;;;;43.93;21.43;;;6.50;51.00;;;6.43;42.96;95771.06;4936366;28;20501;-58
2022/03/16 02:47:35;;;;;;;49.93;23.43;;;6.50;51.30;;;6.41;42.80;95772.09;4931818;29;20982;-58
2022/03/16 02:50:03;;;;;;;46.07;23.27;;;6.50;51.20;;;6.39;43.03;95771.34;4938049;29;20457;-57
2022/03/16 02:52:30;;;;;;;48.00;22.60;;;6.40;51.50;;;6.38;42.48;95760.06;4938341;29;20496;-56
2022/03/16 02:54:57;;;;;;;45.67;22.10;;;6.40;51.30;;;6.37;43.12;95758.38;4937158;29;20524;-58
2022/03/16 02:57:27;;;;;;;32.87;17.43;;;6.50;51.70;;;6.38;42.42;95761.81;4932472;29;20918;-58
2022/03/16 02:59:54;;;;;;;33.63;16.83;;;6.50;51.50;;;6.37;42.80;95757.53;4936972;29;20468;-57
2022/03/16 03:02:21;;;;;;;35.60;18.17;;;6.50;52.10;;;6.36;43.02;95748.00;4939724;28;20460;-59
2022/03/16 03:04:48;;;;;;;33.83;16.67;;;6.40;51.50;;;6.36;42.91;95746.22;4940701;29;20454;-57
2022/03/16 03:07:16;;;;;;;37.17;17.70;;;6.40;51.70;;;6.35;43.37;95735.88;4930820;29;20454;-58
2022/03/16 03:09:43;;;;;;;37.30;17.20;;;6.40;52.00;;;6.34;43.03;95735.03;4934680;28;20453;-57
2022/03/16 03:12:11;;;;;;;34.93;17.20;;;6.40;52.00;;;6.33;43.40;95741.19;4939667;28;20456;-55
2022/03/16 03:14:39;;;;;;;38.60;17.40;;;6.40;52.20;;;6.32;43.00;95739.53;4944359;29;20665;-56
2022/03/16 03:17:07;;;;;;;35.90;19.20;;;6.40;52.00;;;6.31;43.42;95732.63;4931994;28;20500;-57
2022/03/16 03:19:34;;;;;;;40.47;19.50;;;6.40;52.00;;;6.29;43.65;95734.50;4932988;29;20459;-57
2022/03/16 03:22:01;;;;;;;41.77;20.27;;;6.40;52.50;;;6.30;43.83;95735.31;4938732;29;20469;-55
2022/03/16 03:24:29;;;;;;;51.73;23.47;;;6.40;52.90;;;6.25;43.58;95738.22;4942005;28;20507;-57
2022/03/16 03:26:56;;;;;;;44.07;22.00;;;6.40;52.50;;;6.24;43.35;95733.91;4935589;28;20491;-56
2022/03/16 03:29:23;;;;;;;44.40;21.17;;;6.30;52.50;;;6.23;43.58;95732.25;4933182;29;21045;-56
2022/03/16 03:31:52;;;;;;;50.87;20.60;;;6.30;52.80;;;6.23;43.65;95732.25;4936142;28;20460;-62
2022/03/16 03:34:19;;;;;;;45.63;21.93;;;6.30;52.90;;;6.22;43.66;95733.16;4938747;29;20472;-58
2022/03/16 03:36:46;;;;;;;45.77;22.67;;;6.30;52.80;;;6.22;43.97;95723.53;4934216;29;20505;-56
2022/03/16 03:39:14;;;;;;;41.93;21.43;;;6.30;52.90;;;6.20;43.81;95716.75;4931794;29;20990;-57
2022/03/16 03:41:42;;;;;;;47.10;22.70;;;6.30;53.10;;;6.20;43.71;95725.41;4935841;29;20965;-57
2022/03/16 03:44:09;;;;;;;58.43;23.80;;;6.30;53.10;;;6.19;43.95;95731.56;4936837;29;20989;-55
2022/03/16 03:46:36;;;;;;;47.73;23.80;;;6.20;53.00;;;6.19;43.78;95734.19;4936257;28;20456;-58
2022/03/16 03:49:05;;;;;;;39.00;21.03;;;6.30;53.30;;;6.19;44.16;95722.91;4930617;28;20600;-58
2022/03/16 03:51:32;;;;;;;39.20;19.03;;;6.30;53.30;;;6.16;44.55;95723.09;4936947;28;20461;-57
2022/03/16 03:53:59;;;;;;;36.70;18.47;;;6.20;53.70;;;6.13;43.88;95726.72;4940730;29;20468;-58
2022/03/16 03:56:27;;;;;;;35.87;20.60;;;6.20;53.20;;;6.12;43.74;95721.56;4945555;29;21075;-57
2022/03/16 03:58:54;;;;;;;33.30;17.60;;;6.20;53.20;;;6.12;43.71;95716.34;4935736;28;20592;-55
2022/03/16 04:01:21;;;;;;;36.10;18.57;;;6.20;53.00;;;6.13;43.71;95715.44;4935842;29;20468;-57
2022/03/16 04:03:49;;;;;;;40.13;18.60;;;6.20;53.10;;;6.13;44.01;95721.47;4941375;29;20559;-56
2022/03/16 04:06:17;;;;;;;47.03;18.47;;;6.20;53.20;;;6.13;43.81;95720.66;4943831;29;20491;-58
2022/03/16 04:08:45;;;;;;;32.43;17.40;;;6.20;53.20;;;6.10;44.19;95714.69;4937830;28;20467;-59
2022/03/16 04:11:13;;;;;;;33.40;18.53;;;6.20;53.50;;;6.08;44.09;95711.31;4945622;29;20456;-56
2022/03/16 04:13:40;;;;;;;39.00;19.07;;;6.10;53.10;;;6.08;43.63;95706.09;4940565;29;20551;-58
2022/03/16 04:16:07;;;;;;;35.27;17.77;;;6.10;53.10;;;6.09;43.65;95702.56;4940312;29;20493;-59
2022/03/16 04:18:34;;;;;;;34.40;19.73;;;6.10;53.10;;;6.08;43.33;95700.03;4935652;29;20464;-57
2022/03/16 04:21:02;;;;;;;40.83;18.87;;;6.10;52.90;;;6.04;44.11;95709.84;4940583;28;20539;-58
2022/03/16 04:23:30;;;;;;;42.73;19.63;;;6.10;53.30;;;6.02;44.30;95703.84;4939650;29;20480;-56
2022/03/16 04:25:58;;;;;;;38.03;20.33;;;6.10;53.90;;;6.00;44.66;95692.66;4937682;29;20499;-58
2022/03/16 04:28:26;;;;;;;50.93;20.30;;;6.10;54.00;;;5.99;44.33;95696.19;4937148;29;20504;-55
2022/03/16 04:30:53;;;;;;;36.60;18.97;;;6.10;54.10;;;5.99;44.62;95685.75;4932436;29;20473;-59
2022/03/16 04:33:21;;;;;;;37.63;20.30;;;6.10;53.90;;;6.00;44.37;95692.66;4935816;28;20480;-56
2022/03/16 04:35:48;;;;;;;35.87;19.97;;;6.10;54.10;;;6.00;44.58;95676.16;4942120;28;20496;-57
2022/03/16 04:38:16;;;;;;;37.73;19.27;;;6.10;54.50;;;6.00;44.58;95684.81;4936532;29;20913;-57
2022/03/16 04:40:44;;;;;;;35.10;20.40;;;6.10;54.20;;;6.02;44.40;95687.34;4935497;29;20492;-60
2022/03/16 04:43:12;;;;;;;39.20;18.17;;;6.10;54.40;;;6.06;44.77;95681.00;4936756;29;20480;-56
2022/03/16 04:45:39;;;;;;;45.73;21.47;;;6.10;54.90;;;6.08;44.76;95685.19;4932560;29;20551;-56
2022/03/16 04:48:08;;;;;;;31.50;17.93;;;6.10;54.90;;;6.09;44.93;95666.00;4942053;28;20726;-56
2022/03/16 04:50:35;;;;;;;64.80;21.20;;;6.20;54.90;;;6.08;44.73;95672.13;4930195;28;20467;-57
2022/03/16 04:53:02;;;;;;;41.07;20.47;;;6.20;54.90;;;6.10;45.43;95680.75;4934581;29;20544;-57
2022/03/16 04:55:30;;;;;;;49.67;19.93;;;6.20;55.10;;;6.13;44.84;95665.81;4935417;28;20450;-57
2022/03/16 04:58:00;;;;;;;43.73;19.63;;;6.20;54.90;;;6.15;45.16;95658.72;4943292;29;20483;-56
2022/03/16 05:00:27;;;;;;;55.07;21.27;;;6.20;55.90;;;6.16;44.92;95660.41;4925401;29;20454;-57
2022/03/16 05:02:55;;;;;;;38.90;20.30;;;6.20;55.00;;;6.16;45.03;95657.78;4925391;29;20564;-57
2022/03/16 05:05:22;;;;;;;52.43;21.77;;;6.20;54.90;;;6.17;44.47;95655.06;4931596;29;20465;-55
2022/03/16 05:07:49;;;;;;;49.07;22.27;;;6.20;55.10;;;6.16;44.80;95655.16;4939903;29;20472;-57
2022/03/16 05:10:17;;;;;;;59.40;23.00;;;6.20;54.90;;;6.15;45.04;95653.47;4930268;29;20527;-58
2022/03/16 05:12:45;;;;;;;50.03;22.33;;;6.20;54.90;;;6.16;45.24;95656.00;4933029;29;20485;-58
2022/03/16 05:15:15;;;;;;;42.23;19.87;;;6.20;55.60;;;6.17;45.17;95651.63;4932650;29;20966;-57
2022/03/16 05:17:42;;;;;;;54.87;21.20;;;6.20;55.50;;;6.21;45.53;95647.88;4934743;29;20496;-58
2022/03/16 05:20:11;;;;;;;56.50;22.90;;;6.20;55.90;;;6.23;45.58;95649.47;4939252;29;20461;-55
2022/03/16 05:22:42;;;;;;;45.43;21.90;;;6.30;56.30;;;6.27;45.45;95648.38;4931741;29;20961;-57
2022/03/16 05:25:11;;;;;;;36.77;20.77;;;6.30;56.60;;;6.32;45.93;95645.47;4933726;29;20954;-56
2022/03/16 05:27:38;;;;;;;50.90;22.73;;;6.30;56.80;;;6.32;45.70;95640.25;4936600;28;20614;-59
2022/03/16 05:30:07;;;;;;;56.40;21.67;;;6.40;56.50;;;6.35;45.48;95634.84;4937508;29;20456;-59
2022/03/16 05:32:36;;;;;;;60.27;23.17;;;6.40;56.30;;;6.37;45.65;95626.91;4928924;29;20598;-58
2022/03/16 05:35:04;;;;;;;61.80;27.07;;;6.40;56.10;;;6.35;45.65;95624.38;4935537;29;20476;-56
2022/03/16 05:37:31;;;;;;;76.10;31.33;;;6.40;56.40;;;6.34;45.43;95622.69;4936101;29;20496;-58
2022/03/16 05:39:59;;;;;;;83.97;31.57;;;6.40;56.10;;;6.35;45.91;95624.38;4939685;28;20473;-57
2022/03/16 05:42:26;;;;;;;82.80;35.80;;;6.40;56.60;;;6.36;45.31;95620.81;4933903;28;20481;-55
2022/03/16 05:44:54;;;;;;;98.43;35.70;;;6.40;56.30;;;6.38;45.51;95613.75;4933436;29;20457;-59
2022/03/16 05:47:22;;;;;;;68.13;34.97;;;6.40;56.30;;;6.40;45.87;95609.25;4934243;28;20564;-55
2022/03/16 05:49:51;;;;;;;119.13;36.37;;;6.40;56.40;;;6.43;45.89;95616.06;4942125;28;20515;-57
2022/03/16 05:52:21;;;;;;;79.70;34.83;;;6.50;56.60;;;6.44;45.67;95604.66;4936699;29;20457;-57
2022/03/16 05:54:49;;;;;;;104.60;40.37;;;6.50;56.70;;;6.43;46.00;95611.66;4929810;29;20537;-55
2022/03/16 05:57:16;;;;;;;99.10;44.00;;;6.50;56.90;;;6.39;46.52;95612.78;4936098;29;20536;-58
2022/03/16 05:59:44;;;;;;;84.93;41.80;;;6.50;57.20;;;6.39;45.88;95615.41;4936807;29;20942;-57
2022/03/16 06:02:11;;;;;;;86.90;35.77;;;6.50;56.70;;;6.38;46.05;95612.88;4934770;29;20466;-57
2022/03/16 06:04:38;;;;;;;69.03;33.40;;;6.40;56.50;;;6.37;45.81;95617.28;4929692;29;20466;-59
2022/03/16 06:07:07;;;;;;;60.40;28.90;;;6.40;56.60;;;6.34;45.98;95612.25;4934692;28;20457;-56
2022/03/16 06:09:35;;;;;;;67.13;29.80;;;6.40;56.80;;;6.34;46.01;95612.25;4932381;28;20453;-56
2022/03/16 06:12:02;;;;;;;68.23;31.53;;;6.40;57.10;;;6.32;45.69;95614.13;4938662;28;20964;-55
2022/03/16 06:14:30;;;;;;;73.40;29.73;;;6.40;57.20;;;6.30;46.05;95607.31;4928389;29;20544;-57
2022/03/16 06:16:57;;;;;;;70.57;29.70;;;6.40;57.10;;;6.30;46.43;95610.75;4934139;29;20499;-57
2022/03/16 06:19:24;;;;;;;71.03;30.90;;;6.40;57.30;;;6.30;45.98;95612.53;4938606;29;20477;-60
2022/03/16 06:21:52;;;;;;;66.77;29.57;;;6.40;57.30;;;6.31;46.00;95619.44;4939636;28;20665;-58
2022/03/16 06:24:20;;;;;;;69.07;29.23;;;6.40;57.00;;;6.32;45.84;95614.13;4930079;28;20499;-56
2022/03/16 06:26:48;;;;;;;60.77;29.40;;;6.40;57.00;;;6.34;46.06;95620.09;4933459;29;20457;-58
2022/03/16 06:29:15;;;;;;;57.43;26.50;;;6.40;57.60;;;6.35;45.84;95621.78;4937664;28;20484;-57
2022/03/16 06:31:42;;;;;;;47.73;25.80;;;6.40;56.80;;;6.37;45.82;95609.44;4934737;28;20468;-57
2022/03/16 06:34:10;;;;;;;60.93;28.80;;;6.40;56.80;;;6.39;45.57;95612.78;4931691;29;20480;-56
2022/03/16 06:36:37;;;;;;;61.60;27.97;;;6.40;56.90;;;6.43;45.79;95626.53;4932424;29;20493;-55
2022/03/16 06:39:04;;;;;;;57.83;26.60;;;6.50;56.90;;;6.46;45.74;95621.94;4935957;29;20472;-59
2022/03/16 06:41:33;;;;;;;66.10;29.03;;;6.50;56.90;;;6.50;45.66;95606.06;4937478;29;20463;-57
2022/03/16 06:44:00;;;;;;;56.50;27.70;;;6.50;56.90;;;6.54;45.41;95616.22;4940233;28;20477;-57
2022/03/16 06:46:28;;;;;;;54.70;27.20;;;6.60;56.80;;;6.56;45.62;95606.50;4930577;28;20465;-58
2022/03/16 06:48:55;;;;;;;60.83;26.00;;;6.60;56.60;;;6.61;45.27;95616.66;4936808;28;20481;-58
2022/03/16 06:51:22;;;;;;;75.50;28.60;;;6.60;56.50;;;6.65;45.21;95620.78;4935741;28;20457;-57
2022/03/16 06:53:50;;;;;;;74.57;26.30;;;6.70;56.40;;;6.69;45.34;95613.56;4932449;29;20488;-56
2022/03/16 06:56:17;;;;;;;58.87;26.67;;;6.70;56.20;;;6.74;44.90;95614.97;4927414;29;20535;-57
2022/03/16 06:58:46;;;;;;;66.83;28.60;;;6.80;56.10;;;6.77;44.92;95609.53;4935082;29;20479;-55
2022/03/16 07:01:13;;;;;;;61.07;27.67;;;6.80;56.30;;;6.80;45.07;95605.88;4931701;29;20886;-60
2022/03/16 07:03:40;;;;;;;74.17;27.87;;;6.80;56.30;;;6.82;45.45;95604.84;4938911;28;20486;-59
2022/03/16 07:06:08;;;;;;;66.50;27.03;;;6.80;56.40;;;6.86;45.22;95604.66;4934553;28;20907;-58
2022/03/16 07:08:36;;;;;;;74.43;32.87;;;6.90;56.70;;;6.86;45.44;95596.81;4930218;29;21742;-55
2022/03/16 07:11:03;;;;;;;81.23;32.37;;;6.90;56.70;;;6.88;45.17;95601.00;4938267;28;20464;-59
2022/03/16 07:13:30;;;;;;;66.13;31.77;;;6.90;56.80;;;6.91;45.56;95600.81;4939737;29;20480;-58
2022/03/16 07:15:59;;;;;;;64.43;31.17;;;6.90;57.70;;;6.95;45.21;95596.19;4935976;29;20509;-57
2022/03/16 07:18:26;;;;;;;70.03;30.70;;;7.00;56.80;;;7.00;45.81;95601.97;4931851;29;20908;-58
2022/03/16 07:20:54;;;;;;;73.30;32.57;;;7.00;57.00;;;7.05;45.88;95596.44;4935643;29;20463;-58
2022/03/16 07:23:21;;;;;;;78.53;33.80;;;7.10;57.10;;;7.09;45.12;95595.31;4932508;28;20468;-58
2022/03/16 07:25:49;;;;;;;79.70;31.60;;;7.10;56.50;;;7.12;45.20;95593.31;4941167;28;20464;-56
2022/03/16 07:28:17;;;;;;;105.20;34.27;;;7.10;56.50;;;7.15;44.76;95593.13;4935533;29;20507;-57
2022/03/16 07:30:44;;;;;;;71.70;33.53;;;7.20;56.50;;;7.17;44.83;95596.50;4933871;29;20461;-59
2022/03/16 07:33:13;;;;;;;77.27;35.50;;;7.20;56.40;;;7.22;45.11;95595.31;4938798;28;20481;-58
2022/03/16 07:35:41;;;;;;;121.30;39.30;;;7.20;56.50;;;7.23;45.33;95581.31;4937505;29;20895;-55
2022/03/16 07:38:08;;;;;;;91.40;37.20;;;7.30;56.70;;;7.27;45.09;95593.25;4932111;29;20535;-58
2022/03/16 07:40:36;;;;;;;104.87;39.17;;;7.30;57.00;;;7.31;45.67;95576.41;4937069;29;20444;-56
2022/03/16 07:43:04;;;;;;;97.30;38.47;;;7.30;57.10;;;7.37;45.29;95586.47;4939193;29;20468;-56
2022/03/16 07:45:31;;;;;;;92.93;36.90;;;7.40;57.30;;;7.43;46.05;95582.59;4940292;29;20459;-56
2022/03/16 07:47:59;;;;;;;102.77;35.40;;;7.40;57.50;;;7.48;45.44;95572.66;4934685;29;20469;-55
2022/03/16 07:50:28;;;;;;;92.00;35.67;;;7.50;57.40;;;7.54;45.73;95582.72;4936710;29;20481;-57
2022/03/16 07:52:55;;;;;;;79.70;34.03;;;7.50;57.20;;;7.59;45.49;95578.03;4942367;28;20477;-59
2022/03/16 07:55:22;;;;;;;96.70;35.40;;;7.60;57.30;;;7.68;45.39;95584.41;4943493;28;20514;-58
2022/03/16 07:57:50;;;;;;;67.87;32.97;;;7.70;57.10;;;7.75;45.24;95575.19;4933199;29;21048;-59
2022/03/16 08:00:18;;;;;;;94.97;33.47;;;7.70;57.00;;;7.85;45.32;95573.63;4935669;29;20460;-59
2022/03/16 08:02:45;;;;;;;70.87;34.27;;;7.80;56.80;;;7.89;44.94;95571.63;4938980;29;20484;-54
2022/03/16 08:05:13;;;;;;;80.87;33.27;;;7.90;56.80;;;7.96;44.87;95577.25;4943482;28;20464;-58
2022/03/16 08:07:42;;;;;;;82.17;36.50;;;7.90;56.20;;;7.96;44.51;95577.25;4940748;28;20828;-57
2022/03/16 08:10:10;;;;;;;84.33;34.87;;;8.00;56.20;;;7.94;45.00;95580.00;4933959;29;20483;-59
2022/03/16 08:12:37;;;;;;;103.27;36.10;;;8.00;56.90;;;7.96;44.93;95579.88;4939290;28;20485;-59
2022/03/16 08:15:06;;;;;;;86.33;36.53;;;8.00;56.60;;;7.98;45.12;95575.38;4940403;29;20464;-58
2022/03/16 08:17:33;;;;;;;79.60;34.77;;;8.00;56.30;;;8.05;45.28;95574.00;4945803;29;20673;-59
2022/03/16 08:20:00;;;;;;;81.37;35.27;;;8.00;56.60;;;8.10;44.75;95564.03;4933329;29;20469;-59
2022/03/16 08:22:29;;;;;;;107.30;38.43;;;8.10;56.30;;;8.12;44.26;95562.16;4936528;29;20483;-59
2022/03/16 08:24:58;;;;;;;89.43;35.83;;;8.10;55.90;;;8.15;44.96;95551.47;4936745;29;21000;-57
2022/03/16 08:27:26;;;;;;;91.07;37.47;;;8.10;55.90;;;8.17;44.85;95549.56;4944334;28;20473;-57
2022/03/16 08:29:53;;;;;;;83.83;37.07;;;8.20;55.90;;;8.23;44.98;95548.31;4935030;29;20464;-60
2022/03/16 08:32:21;;;;;;;66.73;35.73;;;8.20;56.20;;;8.28;43.95;95550.59;4934118;28;20813;-56
2022/03/16 08:34:48;;;;;;;64.07;31.37;;;8.30;55.20;;;8.33;43.52;95544.06;4938428;29;20456;-57
2022/03/16 08:37:17;;;;;;;87.77;33.13;;;8.30;54.80;;;8.41;43.66;95552.25;4943140;28;20496;-63
2022/03/16 08:39:44;;;;;;;86.43;34.40;;;8.40;54.80;;;8.52;43.63;95554.13;4937391;28;20465;-57
2022/03/16 08:42:13;;;;;;;105.13;33.90;;;8.50;55.40;;;8.68;44.23;95556.47;4933591;29;20452;-59
2022/03/16 08:44:42;;;;;;;58.73;29.37;;;8.60;55.50;;;8.83;43.35;95561.53;4939443;29;20519;-59
2022/03/16 08:47:12;;;;;;;78.70;31.20;;;8.80;55.10;;;8.97;43.09;95546.47;4940460;29;20556;-60
2022/03/16 08:49:39;;;;;;;53.77;28.43;;;8.90;54.40;;;9.12;42.56;95541.03;4938204;28;20457;-55
2022/03/16 08:52:07;;;;;;;82.30;29.33;;;9.00;53.70;;;9.27;42.73;95541.69;4937310;28;20462;-58
2022/03/16 08:54:35;;;;;;;61.70;27.10;;;9.20;53.40;;;9.39;42.13;95530.25;4938166;29;20962;-57
2022/03/16 08:57:02;;;;;;;76.43;26.63;;;9.30;53.20;;;9.50;41.66;95529.44;4942782;29;20512;-58
2022/03/16 08:59:31;;;;;;;54.10;26.90;;;9.40;52.10;;;9.56;41.55;95521.09;4944909;28;20545;-59
2022/03/16 09:01:58;;;;;;;56.10;27.47;;;9.50;51.70;;;9.62;41.54;95532.91;4931240;29;20459;-57
2022/03/16 09:04:26;;;;;;;97.13;39.03;;;9.60;51.40;;;9.64;41.34;95523.97;4935941;29;21053;-58
2022/03/16 09:06:53;;;;;;;89.97;38.57;;;9.60;51.60;;;9.71;41.20;95536.63;4939790;28;20492;-55
2022/03/16 09:09:20;;;;;;;91.37;39.93;;;9.60;51.50;;;9.72;41.19;95540.94;4939826;28;20584;-58
2022/03/16 09:11:48;;;;;;;96.50;38.60;;;9.70;51.50;;;9.69;41.48;95539.38;4935334;28;20887;-57
2022/03/16 09:14:16;;;;;;;91.97;36.37;;;9.60;51.40;;;9.68;41.44;95541.16;4934398;29;20476;-58
2022/03/16 09:16:45;;;;;;;68.47;34.30;;;9.60;51.30;;;9.69;41.22;95544.63;4938889;29;20463;-58
2022/03/16 09:19:21;;;;;;;83.50;34.33;;;9.60;51.20;;;9.74;41.24;95546.91;4936019;29;20473;-59
2022/03/16 09:21:48;;;;;;;59.53;33.50;;;9.70;51.50;;;9.78;41.06;95543.91;4935086;28;20524;-55
2022/03/16 09:24:15;;;;;;;75.27;33.17;;;9.70;51.20;;;9.84;40.88;95542.63;4933846;29;20548;-57
2022/03/16 09:26:43;;;;;;;73.60;30.40;;;9.80;50.90;;;9.89;40.80;95545.72;4936460;29;20464;-59
2022/03/16 09:29:10;;;;;;;75.67;30.20;;;9.80;50.70;;;9.93;40.55;95541.91;4940365;29;20551;-58
2022/03/16 09:31:39;;;;;;;70.47;32.47;;;9.90;50.70;;;10.01;40.69;95542.13;4935829;28;20950;-55
2022/03/16 09:34:09;;;;;;;66.37;30.00;;;9.90;50.70;;;10.12;40.46;95541.28;4933128;29;20472;-58
2022/03/16 09:36:37;;;;;;;54.13;26.83;;;10.00;49.70;;;10.22;40.19;95537.00;4938451;29;20485;-59
2022/03/16 09:39:04;;;;;;;70.20;28.77;;;10.10;49.00;;;10.34;40.06;95548.34;4941350;29;20584;-57
2022/03/16 09:41:32;;;;;;;67.10;29.13;;;10.30;48.90;;;10.43;39.85;95549.41;4940898;28;20508;-56
2022/03/16 09:44:00;;;;;;;78.83;26.73;;;10.30;48.40;;;10.48;39.98;95546.44;4932380;29;20476;-57
2022/03/16 09:46:31;;;;;;;63.90;27.40;;;10.40;48.80;;;10.55;39.71;95537.91;4933735;29;20469;-58
2022/03/16 09:48:58;;;;;;;44.97;23.73;;;10.40;48.50;;;10.60;39.31;95540.19;4940684;29;20604;-58
2022/03/16 09:51:29;;;;;;;38.37;20.10;;;10.50;48.40;;;10.63;39.48;95542.56;4944511;28;20452;-56
2022/03/16 09:53:56;;;;;;;52.10;22.03;;;10.60;48.30;;;10.65;39.51;95543.28;4932708;28;20473;-57
2022/03/16 09:56:23;;;;;;;42.53;20.13;;;10.60;48.00;;;10.66;39.44;95541.47;4936025;28;20464;-57
2022/03/16 09:58:51;;;;;;;43.50;20.93;;;10.60;48.10;;;10.66;39.66;95534.44;4937931;28;20500;-58
2022/03/16 10:01:19;;;;;;;49.93;24.03;;;10.60;48.20;;;10.69;39.29;95534.19;4940004;28;20520;-59
2022/03/16 10:03:49;;;;;;;68.87;22.03;;;10.60;48.00;;;10.70;39.42;95520.03;4926112;29;21010;-56
2022/03/16 10:06:17;;;;;;;68.90;20.97;;;10.60;48.00;;;10.72;39.28;95518.16;4934008;29;20460;-56
2022/03/16 10:13:13;;;;;;;36.20;20.93;;;10.60;48.00;;;10.72;39.44;95522.56;4933870;29;20472;-57
2022/03/16 10:14:31;;;;;;;40.80;20.47;;;10.60;47.90;;;10.68;39.40;95514.09;4867136;29;20444;-57
2022/03/16 10:19:50;;;;;;;55.43;19.70;;;10.60;47.90;;;10.61;39.58;95515.53;4936114;29;20460;-59
2022/03/16 10:22:26;;;;;;;45.50;20.20;;;10.60;47.90;;;10.57;39.46;95522.84;4941247;28;20848;-56
2022/03/16 10:25:00;;;;;;;53.30;19.93;;;10.50;47.90;;;10.55;39.50;95511.63;4927242;29;20904;-56
2022/03/16 10:27:28;;;;;;;64.47;22.10;;;10.50;48.00;;;10.55;39.48;95513.41;4933644;29;21301;-60